AirNav   Everest Fuels
 
 853 users online  

MS14 John Farese Airpark
Ashland, Mississippi, USA

GOING TO ASHLAND?


FAA INFORMATION EFFECTIVE 10 SEPTEMBER 2020

Location

FAA Identifier: MS14
Lat/Long: 34-48-50.0000N 089-11-58.6200W
34-48.833333N 089-11.977000W
34.8138889,-89.1996167
(estimated)
Elevation: 565 ft. / 172 m (estimated)
From city: 2 miles SW of ASHLAND, MS
Time zone: UTC -5 (UTC -6 during Standard Time)
Zip code: 38603

Airport Operations

Airport use: Private use. Permission required prior to landing
Activation date: 09/2009
Control tower: no
ARTCC: MEMPHIS CENTER
FSS: GREENWOOD FLIGHT SERVICE STATION
Attendance: UNATNDD
Wind indicator: yes
Segmented circle: no

Nearby radio navigation aids

VOR radial/distance  VOR name  Freq  Var
HLIr077/14.9HOLLY SPRINGS VORTAC112.4003E

Airport Services

Runway Information

Runway 5/23

Dimensions: 2000 x 75 ft. / 610 x 23 m
Surface: turf, in good condition
RUNWAY 5  RUNWAY 23
Traffic pattern: leftleft

Airport Ownership and Management from official FAA records

Ownership: Privately-owned
Owner: EMRY & AMY SISSON
14831 HWY 5
ASHLAND, MS 38603
Phone 9014845861
Manager: EMRY SISSON
14831 HWY 5
ASHLAND, MS 38603
Phone 9014845861
CELL # 901-484-5861

Additional Remarks

ALTERNATE TELEPHONE 901 212 3617
FOR CD CTC MEMPHIS ARTCC AT 901-368-8453.

Instrument Procedures

There are no published instrument procedures at MS14.

Some nearby airports with instrument procedures:

25M - Ripley Airport (11 nm SE)
M41 - Holly Springs-Marshall County Airport (16 nm W)
M72 - New Albany-Union County Airport (18 nm SE)
M08 - William L Whitehurst Field Airport (25 nm N)
KFYE - Fayette County Airport (25 nm N)
 
Loc | Ops | Rwys | IFR | FBO | Links
Com | Nav | Svcs | Stats | Notes
Aerial photo
No photo
 
Sectional chart

 
Airport distance calculator
Flying to John Farese Airpark? Find the distance to fly.

From to MS14

Sunrise and sunset
Times for 22-Sep-2020
 Local
(UTC-5)
 Zulu
(UTC)
Morning civil twilight06:2111:21
Sunrise06:4711:47
Sunset18:5223:52
Evening civil twilight19:1700:17

Current date and time
Zulu (UTC)  22-Sep-2020 11:22:29
Local (UTC-5)  22-Sep-2020 06:22:29
 
METAR
KM08 
25nm N 
221055Z AUTO 08003KT 10SM FEW031 FEW036 OVC120 14/11 A3022 RMK A01
KFYE 
25nm N 
220755Z AUTO VRB03KT 10SM BKN120 17/11 A3018 RMK A01
KCRX 
30nm E 
221030Z AUTO 00000KT 10SM CLR 12/10 A3023 RMK AO2
KOLV 
30nm W 
221055Z AUTO 14006KT 10SM 17/12 A3020 RMK A01
KUOX 
31nm SW 
221055Z AUTO VRB06G11KT 10SM CLR 15/10 A3022 RMK AO2 PWINO
KTUP 
39nm SE 
221053Z AUTO 07004KT 10SM CLR 16/11 A3022 RMK AO2 SLP230 T01560106
KMEM 
41nm W 
221054Z 15007KT 10SM BKN120 OVC250 18/11 A3020 RMK AO2 SLP223 T01830111
KSZY 
41nm NE 
221055Z AUTO 00000KT 10SM CLR 11/11 A3023 RMK A01
KPMU 
44nm SW 
221055Z AUTO 00000KT 10SM FEW030 17/12 A3019 RMK AO2
KNQA 
46nm NW 
221050Z 12003KT 10SM SCT019 BKN110 16/12 A3020
TAF
KTUP 
39nm SE 
220520Z 2206/2306 09005KT P6SM SCT250 FM221500 14008KT P6SM VCSH BKN050 FM222100 08005KT P6SM OVC250 FM230300 08003KT P6SM -SHRA OVC050
KMEM 
41nm W 
220901Z 2209/2312 13008KT P6SM BKN100 BKN250 FM221350 13007KT P6SM VCSH BKN100 FM222100 08005KT P6SM OVC100 FM230200 06005KT P6SM VCSH OVC050 FM230700 13004KT P6SM -SHRA OVC050
NOTAMs
Click for the latest NOTAMs
NOTAMs are issued by the DoD/FAA and will open in a separate window not controlled by AirNav.

 

 
 

Would you like to see your business listed on this page?

 If your business provides an interesting product or service to pilots, flight crews, aircraft, or users of the John Farese Airpark, you should consider listing it here.  To start the listing process, click on the button below
 
Add a business
 

Other Pages about John Farese Airpark

Update a link
 
Copyright © AirNav, LLC. All rights reserved. Privacy Policy  Contact